Погода Мокросоленыйна неделю

Ростовская область, Россия

19 - 25 мая
  • 19мая
    Сегодня
    +12°
    +21°
    Облачно с прояснениями
    ВремяПогодаТемператураВлажностьДавлениеВетер, м/сВероятность осадков
    00:00Пасмурно, сплошная облачность+14°C48 %758 мм2.5 м/с2 %
    03:00Практически безоблачно+13°C69 %757 мм2.2 м/с2 %
    06:00Практически безоблачно+12°C76 %758 мм1.9 м/с2 %
    09:00Облачно с прояснениями+16°C60 %758 мм2.1 м/с4 %
    12:00Ясно и безоблачно+19°C45 %758 мм1.9 м/с6 %
    15:00Облачно с прояснениями+20°C39 %757 мм2.3 м/с13 %
    18:00Небольшая облачность+19°C52 %758 мм0.9 м/с34 %
    21:00Ясно и безоблачно+16°C68 %758 мм0.8 м/с2 %
  • 20мая
    Понедельник
    +13°
    +21°
    Ясно и безоблачно
    ВремяПогодаТемператураВлажностьДавлениеВетер, м/сВероятность осадков
    00:00Ясно и безоблачно+13°C87 %758 мм1.2 м/с2 %
    03:00Ясно и безоблачно+12°C73 %758 мм1.1 м/с2 %
    06:00Ясно и безоблачно+13°C76 %759 мм1.3 м/с2 %
    09:00Ясно и безоблачно+17°C54 %759 мм1.2 м/с1 %
    12:00Ясно и безоблачно+20°C42 %759 мм1.8 м/с9 %
    15:00Ясно и безоблачно+20°C37 %759 мм2.5 м/с4 %
    18:00Ясно и безоблачно+21°C38 %759 мм1.2 м/с2 %
    21:00Ясно и безоблачно+19°C47 %759 мм0.6 м/с2 %
  • 21мая
    Вторник
    +14°
    +24°
    Ясно и безоблачно
    ВремяПогодаТемператураВлажностьДавлениеВетер, м/сВероятность осадков
    00:00Ясно и безоблачно+16°C63 %760 мм1.4 м/с2 %
    03:00Ясно и безоблачно+14°C69 %760 мм1.8 м/с2 %
    06:00Ясно и безоблачно+15°C66 %761 мм1.5 м/с2 %
    09:00Ясно и безоблачно+19°C40 %761 мм1.9 м/с2 %
    12:00Облачно с прояснениями+22°C30 %761 мм2.6 м/с2 %
    15:00Ясно и безоблачно+23°C31 %760 мм2.4 м/с2 %
    18:00Ясно и безоблачно+23°C33 %760 мм2.0 м/с2 %
    21:00Ясно и безоблачно+20°C58 %760 мм1.7 м/с2 %
  • 22мая
    Среда
    +13°
    +25°
    Практически безоблачно
    ВремяПогодаТемператураВлажностьДавлениеВетер, м/сВероятность осадков
    00:00Ясно и безоблачно+17°C47 %760 мм2.1 м/с2 %
    03:00Ясно и безоблачно+15°C50 %760 мм2.3 м/с2 %
    06:00Ясно и безоблачно+15°C48 %760 мм1.8 м/с2 %
    09:00Ясно и безоблачно+20°C40 %760 мм2.3 м/с2 %
    12:00Ясно и безоблачно+24°C30 %759 мм3.1 м/с2 %
    15:00Практически безоблачно+25°C26 %758 мм3.6 м/с2 %
    18:00Ясно и безоблачно+25°C28 %757 мм2.1 м/с2 %
    21:00Ясно и безоблачно+20°C41 %758 мм2.0 м/с2 %
  • 23мая
    Четверг
    +15°
    +25°
    Ясно и безоблачно
    ВремяПогодаТемператураВлажностьДавлениеВетер, м/сВероятность осадков
    00:00Ясно и безоблачно+18°C40 %758 мм2.3 м/с2 %
    03:00Ясно и безоблачно+15°C51 %758 мм2.5 м/с2 %
    06:00Ясно и безоблачно+15°C60 %758 мм1.8 м/с2 %
    09:00Ясно и безоблачно+20°C39 %759 мм2.7 м/с2 %
    12:00Ясно и безоблачно+24°C25 %758 мм3.4 м/с2 %
    15:00Ясно и безоблачно+25°C21 %757 мм3.9 м/с2 %
    18:00Ясно и безоблачно+23°C27 %757 мм2.5 м/с3 %
    21:00Ясно и безоблачно+21°C34 %758 мм3.0 м/с2 %
Мы используем cookies
Соглашаюсь